sensor_id;sensor_type;location;lat;lon;timestamp;P1;durP1;ratioP1;P2;durP2;ratioP2
55009;SDS011;40903;51.638;7.528;2024-01-10T00:01:34;4.80;;;3.40;;
55009;SDS011;40903;51.638;7.528;2024-01-10T00:04:00;8.57;;;3.43;;
55009;SDS011;40903;51.638;7.528;2024-01-10T00:06:28;8.63;;;3.70;;
55009;SDS011;40903;51.638;7.528;2024-01-10T00:08:54;6.05;;;3.22;;
55009;SDS011;40903;51.638;7.528;2024-01-10T00:11:20;9.03;;;3.33;;
55009;SDS011;40903;51.638;7.528;2024-01-10T00:13:45;6.17;;;2.97;;
55009;SDS011;40903;51.638;7.528;2024-01-10T00:16:14;4.97;;;2.70;;
55009;SDS011;40903;51.638;7.528;2024-01-10T00:18:39;7.43;;;3.72;;
55009;SDS011;40903;51.638;7.528;2024-01-10T00:21:06;4.27;;;2.93;;
55009;SDS011;40903;51.638;7.528;2024-01-10T00:23:32;5.90;;;2.97;;
55009;SDS011;40903;51.638;7.528;2024-01-10T00:25:57;8.43;;;3.33;;
55009;SDS011;40903;51.638;7.528;2024-01-10T00:28:23;6.87;;;3.67;;
55009;SDS011;40903;51.638;7.528;2024-01-10T00:30:48;4.83;;;3.00;;
55009;SDS011;40903;51.638;7.528;2024-01-10T00:33:14;4.78;;;3.60;;
55009;SDS011;40903;51.638;7.528;2024-01-10T00:35:40;2.92;;;2.50;;
55009;SDS011;40903;51.638;7.528;2024-01-10T00:38:06;5.63;;;3.03;;
55009;SDS011;40903;51.638;7.528;2024-01-10T00:40:31;6.30;;;3.23;;
55009;SDS011;40903;51.638;7.528;2024-01-10T00:42:57;4.23;;;2.87;;
55009;SDS011;40903;51.638;7.528;2024-01-10T00:45:23;4.97;;;2.90;;
55009;SDS011;40903;51.638;7.528;2024-01-10T00:47:49;5.85;;;3.75;;
55009;SDS011;40903;51.638;7.528;2024-01-10T00:50:14;10.33;;;3.83;;
55009;SDS011;40903;51.638;7.528;2024-01-10T00:52:40;5.87;;;3.10;;
55009;SDS011;40903;51.638;7.528;2024-01-10T00:55:05;7.13;;;3.33;;
55009;SDS011;40903;51.638;7.528;2024-01-10T00:57:31;11.30;;;4.47;;
55009;SDS011;40903;51.638;7.528;2024-01-10T00:59:57;4.43;;;2.80;;
55009;SDS011;40903;51.638;7.528;2024-01-10T01:02:22;4.80;;;2.87;;
55009;SDS011;40903;51.638;7.528;2024-01-10T01:04:48;8.10;;;3.10;;
55009;SDS011;40903;51.638;7.528;2024-01-10T01:07:14;6.37;;;3.40;;
55009;SDS011;40903;51.638;7.528;2024-01-10T01:09:39;9.73;;;3.40;;
55009;SDS011;40903;51.638;7.528;2024-01-10T01:12:05;4.93;;;3.43;;
55009;SDS011;40903;51.638;7.528;2024-01-10T01:14:32;6.30;;;3.33;;
55009;SDS011;40903;51.638;7.528;2024-01-10T01:16:58;5.37;;;3.50;;
55009;SDS011;40903;51.638;7.528;2024-01-10T01:19:24;4.67;;;2.57;;
55009;SDS011;40903;51.638;7.528;2024-01-10T01:21:49;6.93;;;3.30;;
55009;SDS011;40903;51.638;7.528;2024-01-10T01:24:15;7.97;;;5.03;;
55009;SDS011;40903;51.638;7.528;2024-01-10T01:26:40;6.33;;;2.83;;
55009;SDS011;40903;51.638;7.528;2024-01-10T01:29:06;6.57;;;3.47;;
55009;SDS011;40903;51.638;7.528;2024-01-10T01:31:33;5.60;;;4.05;;
55009;SDS011;40903;51.638;7.528;2024-01-10T01:33:59;6.17;;;2.83;;
55009;SDS011;40903;51.638;7.528;2024-01-10T01:36:24;6.63;;;3.47;;
55009;SDS011;40903;51.638;7.528;2024-01-10T01:38:50;8.87;;;3.17;;
55009;SDS011;40903;51.638;7.528;2024-01-10T01:41:16;7.40;;;3.47;;
55009;SDS011;40903;51.638;7.528;2024-01-10T01:43:42;6.10;;;3.75;;
55009;SDS011;40903;51.638;7.528;2024-01-10T01:46:08;6.32;;;3.17;;
55009;SDS011;40903;51.638;7.528;2024-01-10T01:48:34;7.18;;;3.33;;
55009;SDS011;40903;51.638;7.528;2024-01-10T01:51:02;9.03;;;3.00;;
55009;SDS011;40903;51.638;7.528;2024-01-10T01:53:35;5.45;;;3.15;;
55009;SDS011;40903;51.638;7.528;2024-01-10T01:56:02;5.63;;;3.20;;
55009;SDS011;40903;51.638;7.528;2024-01-10T01:58:31;5.40;;;3.38;;
55009;SDS011;40903;51.638;7.528;2024-01-10T02:00:57;8.77;;;3.37;;
55009;SDS011;40903;51.638;7.528;2024-01-10T02:03:24;5.68;;;2.95;;
55009;SDS011;40903;51.638;7.528;2024-01-10T02:05:49;6.17;;;3.90;;
55009;SDS011;40903;51.638;7.528;2024-01-10T02:08:15;5.90;;;3.22;;
55009;SDS011;40903;51.638;7.528;2024-01-10T02:10:41;5.97;;;3.00;;
55009;SDS011;40903;51.638;7.528;2024-01-10T02:13:07;9.57;;;4.17;;
55009;SDS011;40903;51.638;7.528;2024-01-10T02:15:34;5.78;;;3.28;;
55009;SDS011;40903;51.638;7.528;2024-01-10T02:18:03;6.07;;;3.38;;
55009;SDS011;40903;51.638;7.528;2024-01-10T02:20:30;7.57;;;3.13;;
55009;SDS011;40903;51.638;7.528;2024-01-10T02:22:57;6.85;;;3.53;;
55009;SDS011;40903;51.638;7.528;2024-01-10T02:25:22;5.50;;;3.30;;
55009;SDS011;40903;51.638;7.528;2024-01-10T02:27:48;6.27;;;3.10;;
55009;SDS011;40903;51.638;7.528;2024-01-10T02:30:16;7.90;;;3.63;;
55009;SDS011;40903;51.638;7.528;2024-01-10T02:32:42;7.23;;;3.10;;
55009;SDS011;40903;51.638;7.528;2024-01-10T02:35:08;11.63;;;4.37;;
55009;SDS011;40903;51.638;7.528;2024-01-10T02:37:33;8.87;;;4.30;;
55009;SDS011;40903;51.638;7.528;2024-01-10T02:39:59;5.30;;;3.60;;
55009;SDS011;40903;51.638;7.528;2024-01-10T02:42:26;5.40;;;2.97;;
55009;SDS011;40903;51.638;7.528;2024-01-10T02:44:53;8.48;;;3.75;;
55009;SDS011;40903;51.638;7.528;2024-01-10T02:47:18;6.97;;;3.50;;
55009;SDS011;40903;51.638;7.528;2024-01-10T02:49:44;7.07;;;3.63;;
55009;SDS011;40903;51.638;7.528;2024-01-10T02:52:10;6.77;;;3.00;;
55009;SDS011;40903;51.638;7.528;2024-01-10T02:54:35;9.53;;;3.33;;
55009;SDS011;40903;51.638;7.528;2024-01-10T02:57:01;9.17;;;3.97;;
55009;SDS011;40903;51.638;7.528;2024-01-10T02:59:26;7.13;;;3.40;;
55009;SDS011;40903;51.638;7.528;2024-01-10T03:01:52;10.30;;;4.13;;
55009;SDS011;40903;51.638;7.528;2024-01-10T03:04:18;8.33;;;3.53;;
55009;SDS011;40903;51.638;7.528;2024-01-10T03:06:43;4.77;;;3.37;;
55009;SDS011;40903;51.638;7.528;2024-01-10T03:09:09;6.40;;;3.75;;
55009;SDS011;40903;51.638;7.528;2024-01-10T03:11:35;6.60;;;3.63;;
55009;SDS011;40903;51.638;7.528;2024-01-10T03:14:02;5.50;;;3.13;;
55009;SDS011;40903;51.638;7.528;2024-01-10T03:16:29;7.75;;;3.72;;
55009;SDS011;40903;51.638;7.528;2024-01-10T03:18:55;6.40;;;3.67;;
55009;SDS011;40903;51.638;7.528;2024-01-10T03:21:21;9.23;;;3.80;;
55009;SDS011;40903;51.638;7.528;2024-01-10T03:23:49;9.82;;;2.78;;
55009;SDS011;40903;51.638;7.528;2024-01-10T03:26:15;6.07;;;2.83;;
55009;SDS011;40903;51.638;7.528;2024-01-10T03:28:40;6.43;;;3.30;;
55009;SDS011;40903;51.638;7.528;2024-01-10T03:31:06;7.40;;;3.50;;
55009;SDS011;40903;51.638;7.528;2024-01-10T03:33:32;6.60;;;3.20;;
55009;SDS011;40903;51.638;7.528;2024-01-10T03:35:57;7.10;;;3.10;;
55009;SDS011;40903;51.638;7.528;2024-01-10T03:38:23;7.70;;;3.40;;
55009;SDS011;40903;51.638;7.528;2024-01-10T03:40:54;4.65;;;3.22;;
55009;SDS011;40903;51.638;7.528;2024-01-10T03:43:20;6.10;;;3.30;;
55009;SDS011;40903;51.638;7.528;2024-01-10T03:45:45;6.00;;;3.60;;
55009;SDS011;40903;51.638;7.528;2024-01-10T03:48:11;8.43;;;3.70;;
55009;SDS011;40903;51.638;7.528;2024-01-10T03:50:36;7.63;;;3.77;;
55009;SDS011;40903;51.638;7.528;2024-01-10T03:53:02;6.00;;;3.03;;
55009;SDS011;40903;51.638;7.528;2024-01-10T03:55:27;6.53;;;3.70;;
55009;SDS011;40903;51.638;7.528;2024-01-10T03:57:53;6.47;;;3.47;;
55009;SDS011;40903;51.638;7.528;2024-01-10T04:00:18;7.60;;;3.70;;
55009;SDS011;40903;51.638;7.528;2024-01-10T04:02:45;7.05;;;3.13;;
55009;SDS011;40903;51.638;7.528;2024-01-10T04:05:10;6.33;;;2.90;;
55009;SDS011;40903;51.638;7.528;2024-01-10T04:07:39;6.13;;;3.78;;
55009;SDS011;40903;51.638;7.528;2024-01-10T04:10:06;7.05;;;3.35;;
55009;SDS011;40903;51.638;7.528;2024-01-10T04:12:35;6.55;;;3.83;;
55009;SDS011;40903;51.638;7.528;2024-01-10T04:15:04;7.47;;;5.07;;
55009;SDS011;40903;51.638;7.528;2024-01-10T04:17:31;6.88;;;3.75;;
55009;SDS011;40903;51.638;7.528;2024-01-10T04:19:57;7.77;;;3.47;;
55009;SDS011;40903;51.638;7.528;2024-01-10T04:22:25;8.20;;;3.60;;
55009;SDS011;40903;51.638;7.528;2024-01-10T04:24:51;7.82;;;4.25;;
55009;SDS011;40903;51.638;7.528;2024-01-10T04:27:16;6.57;;;3.63;;
55009;SDS011;40903;51.638;7.528;2024-01-10T04:29:43;10.93;;;4.45;;
55009;SDS011;40903;51.638;7.528;2024-01-10T04:32:09;7.43;;;3.03;;
55009;SDS011;40903;51.638;7.528;2024-01-10T04:34:35;7.63;;;3.83;;
55009;SDS011;40903;51.638;7.528;2024-01-10T04:37:01;7.83;;;4.50;;
55009;SDS011;40903;51.638;7.528;2024-01-10T04:39:26;8.47;;;4.17;;
55009;SDS011;40903;51.638;7.528;2024-01-10T04:41:52;8.03;;;3.97;;
55009;SDS011;40903;51.638;7.528;2024-01-10T04:44:18;8.07;;;3.17;;
55009;SDS011;40903;51.638;7.528;2024-01-10T04:46:43;7.07;;;4.20;;
55009;SDS011;40903;51.638;7.528;2024-01-10T04:49:09;11.33;;;4.97;;
55009;SDS011;40903;51.638;7.528;2024-01-10T04:51:35;7.40;;;3.30;;
55009;SDS011;40903;51.638;7.528;2024-01-10T04:54:03;8.95;;;4.00;;
55009;SDS011;40903;51.638;7.528;2024-01-10T04:56:29;8.03;;;3.70;;
55009;SDS011;40903;51.638;7.528;2024-01-10T04:58:54;5.67;;;3.70;;
55009;SDS011;40903;51.638;7.528;2024-01-10T05:01:20;6.60;;;4.13;;
55009;SDS011;40903;51.638;7.528;2024-01-10T05:03:46;10.77;;;3.97;;
55009;SDS011;40903;51.638;7.528;2024-01-10T05:06:11;6.40;;;3.07;;
55009;SDS011;40903;51.638;7.528;2024-01-10T05:08:37;6.93;;;3.53;;
55009;SDS011;40903;51.638;7.528;2024-01-10T05:11:02;10.43;;;5.07;;
55009;SDS011;40903;51.638;7.528;2024-01-10T05:13:28;7.07;;;3.37;;
55009;SDS011;40903;51.638;7.528;2024-01-10T05:15:54;7.90;;;4.27;;
55009;SDS011;40903;51.638;7.528;2024-01-10T05:18:20;7.83;;;4.50;;
55009;SDS011;40903;51.638;7.528;2024-01-10T05:20:45;7.75;;;3.72;;
55009;SDS011;40903;51.638;7.528;2024-01-10T05:23:11;8.20;;;4.30;;
55009;SDS011;40903;51.638;7.528;2024-01-10T05:25:37;5.30;;;4.07;;
55009;SDS011;40903;51.638;7.528;2024-01-10T05:28:02;10.00;;;4.27;;
55009;SDS011;40903;51.638;7.528;2024-01-10T05:30:29;10.00;;;5.13;;
55009;SDS011;40903;51.638;7.528;2024-01-10T05:32:55;7.68;;;4.32;;
55009;SDS011;40903;51.638;7.528;2024-01-10T05:35:20;9.03;;;4.93;;
55009;SDS011;40903;51.638;7.528;2024-01-10T05:37:46;7.80;;;4.20;;
55009;SDS011;40903;51.638;7.528;2024-01-10T05:40:14;10.87;;;4.83;;
55009;SDS011;40903;51.638;7.528;2024-01-10T05:42:40;5.28;;;3.65;;
55009;SDS011;40903;51.638;7.528;2024-01-10T05:45:06;8.43;;;3.93;;
55009;SDS011;40903;51.638;7.528;2024-01-10T05:47:32;11.43;;;4.47;;
55009;SDS011;40903;51.638;7.528;2024-01-10T05:49:57;11.60;;;5.10;;
55009;SDS011;40903;51.638;7.528;2024-01-10T05:52:23;9.03;;;4.60;;
55009;SDS011;40903;51.638;7.528;2024-01-10T05:54:48;7.23;;;4.50;;
55009;SDS011;40903;51.638;7.528;2024-01-10T05:57:14;7.07;;;4.27;;
55009;SDS011;40903;51.638;7.528;2024-01-10T05:59:41;6.80;;;4.07;;
55009;SDS011;40903;51.638;7.528;2024-01-10T06:02:06;6.47;;;4.10;;
55009;SDS011;40903;51.638;7.528;2024-01-10T06:04:32;11.17;;;4.70;;
55009;SDS011;40903;51.638;7.528;2024-01-10T06:07:00;9.80;;;5.00;;
55009;SDS011;40903;51.638;7.528;2024-01-10T06:09:27;14.70;;;5.25;;
55009;SDS011;40903;51.638;7.528;2024-01-10T06:11:52;10.23;;;4.70;;
55009;SDS011;40903;51.638;7.528;2024-01-10T06:14:18;8.57;;;4.13;;
55009;SDS011;40903;51.638;7.528;2024-01-10T06:16:44;10.13;;;3.97;;
55009;SDS011;40903;51.638;7.528;2024-01-10T06:19:10;13.07;;;4.78;;
55009;SDS011;40903;51.638;7.528;2024-01-10T06:21:36;13.63;;;5.75;;
55009;SDS011;40903;51.638;7.528;2024-01-10T06:24:02;9.40;;;4.97;;
55009;SDS011;40903;51.638;7.528;2024-01-10T06:26:28;7.13;;;3.77;;
55009;SDS011;40903;51.638;7.528;2024-01-10T06:28:53;8.60;;;3.70;;
55009;SDS011;40903;51.638;7.528;2024-01-10T06:31:19;13.10;;;4.93;;
55009;SDS011;40903;51.638;7.528;2024-01-10T06:33:45;10.00;;;4.50;;
55009;SDS011;40903;51.638;7.528;2024-01-10T06:36:11;14.50;;;5.40;;
55009;SDS011;40903;51.638;7.528;2024-01-10T06:38:38;12.80;;;5.27;;
55009;SDS011;40903;51.638;7.528;2024-01-10T06:41:09;9.07;;;4.68;;
55009;SDS011;40903;51.638;7.528;2024-01-10T06:43:36;8.65;;;4.13;;
55009;SDS011;40903;51.638;7.528;2024-01-10T06:46:02;11.05;;;5.47;;
55009;SDS011;40903;51.638;7.528;2024-01-10T06:48:28;11.07;;;4.95;;
55009;SDS011;40903;51.638;7.528;2024-01-10T06:50:54;14.27;;;5.50;;
55009;SDS011;40903;51.638;7.528;2024-01-10T06:53:21;13.75;;;4.93;;
55009;SDS011;40903;51.638;7.528;2024-01-10T06:55:46;7.10;;;4.33;;
55009;SDS011;40903;51.638;7.528;2024-01-10T06:58:12;8.50;;;4.93;;
55009;SDS011;40903;51.638;7.528;2024-01-10T07:00:40;11.48;;;5.07;;
55009;SDS011;40903;51.638;7.528;2024-01-10T07:03:05;8.53;;;4.80;;
55009;SDS011;40903;51.638;7.528;2024-01-10T07:05:31;6.60;;;4.70;;
55009;SDS011;40903;51.638;7.528;2024-01-10T07:07:59;8.27;;;4.70;;
55009;SDS011;40903;51.638;7.528;2024-01-10T07:10:28;8.52;;;4.28;;
55009;SDS011;40903;51.638;7.528;2024-01-10T07:12:57;10.82;;;5.30;;
55009;SDS011;40903;51.638;7.528;2024-01-10T07:15:22;12.75;;;5.93;;
55009;SDS011;40903;51.638;7.528;2024-01-10T07:17:48;12.77;;;4.70;;
55009;SDS011;40903;51.638;7.528;2024-01-10T07:20:14;8.77;;;5.13;;
55009;SDS011;40903;51.638;7.528;2024-01-10T07:22:39;14.50;;;6.33;;
55009;SDS011;40903;51.638;7.528;2024-01-10T07:25:09;8.70;;;4.53;;
55009;SDS011;40903;51.638;7.528;2024-01-10T07:27:39;10.25;;;5.05;;
55009;SDS011;40903;51.638;7.528;2024-01-10T07:30:06;9.90;;;5.70;;
55009;SDS011;40903;51.638;7.528;2024-01-10T07:32:40;9.02;;;4.85;;
55009;SDS011;40903;51.638;7.528;2024-01-10T07:35:07;10.27;;;5.15;;
55009;SDS011;40903;51.638;7.528;2024-01-10T07:37:35;11.57;;;5.10;;
55009;SDS011;40903;51.638;7.528;2024-01-10T07:40:05;11.45;;;5.13;;
55009;SDS011;40903;51.638;7.528;2024-01-10T07:42:32;11.95;;;5.45;;
55009;SDS011;40903;51.638;7.528;2024-01-10T07:44:58;10.40;;;4.60;;
55009;SDS011;40903;51.638;7.528;2024-01-10T07:47:24;10.35;;;5.25;;
55009;SDS011;40903;51.638;7.528;2024-01-10T07:49:50;11.93;;;5.40;;
55009;SDS011;40903;51.638;7.528;2024-01-10T07:52:16;11.45;;;5.68;;
55009;SDS011;40903;51.638;7.528;2024-01-10T07:54:41;10.87;;;4.93;;
55009;SDS011;40903;51.638;7.528;2024-01-10T07:57:07;13.00;;;4.87;;
55009;SDS011;40903;51.638;7.528;2024-01-10T07:59:33;14.73;;;6.20;;
55009;SDS011;40903;51.638;7.528;2024-01-10T08:01:59;11.02;;;5.03;;
55009;SDS011;40903;51.638;7.528;2024-01-10T08:04:26;10.25;;;5.35;;
55009;SDS011;40903;51.638;7.528;2024-01-10T08:06:52;11.38;;;4.97;;
55009;SDS011;40903;51.638;7.528;2024-01-10T08:09:18;14.75;;;6.65;;
55009;SDS011;40903;51.638;7.528;2024-01-10T08:11:45;11.95;;;6.25;;
55009;SDS011;40903;51.638;7.528;2024-01-10T08:14:11;8.23;;;4.20;;
55009;SDS011;40903;51.638;7.528;2024-01-10T08:16:37;9.65;;;5.05;;
55009;SDS011;40903;51.638;7.528;2024-01-10T08:19:02;11.97;;;5.90;;
55009;SDS011;40903;51.638;7.528;2024-01-10T08:21:28;11.43;;;5.13;;
55009;SDS011;40903;51.638;7.528;2024-01-10T08:23:53;12.07;;;4.97;;
55009;SDS011;40903;51.638;7.528;2024-01-10T08:26:19;12.27;;;5.17;;
55009;SDS011;40903;51.638;7.528;2024-01-10T08:28:44;11.77;;;5.50;;
55009;SDS011;40903;51.638;7.528;2024-01-10T08:31:10;12.00;;;5.53;;
55009;SDS011;40903;51.638;7.528;2024-01-10T08:33:37;13.98;;;5.75;;
55009;SDS011;40903;51.638;7.528;2024-01-10T08:36:04;17.45;;;6.18;;
55009;SDS011;40903;51.638;7.528;2024-01-10T08:38:30;17.15;;;6.30;;
55009;SDS011;40903;51.638;7.528;2024-01-10T08:40:57;14.07;;;6.07;;
55009;SDS011;40903;51.638;7.528;2024-01-10T08:43:22;13.73;;;6.03;;
55009;SDS011;40903;51.638;7.528;2024-01-10T08:45:48;12.90;;;6.43;;
55009;SDS011;40903;51.638;7.528;2024-01-10T08:48:14;17.27;;;6.37;;
55009;SDS011;40903;51.638;7.528;2024-01-10T08:50:39;12.47;;;6.00;;
55009;SDS011;40903;51.638;7.528;2024-01-10T08:53:08;13.07;;;5.97;;
55009;SDS011;40903;51.638;7.528;2024-01-10T08:55:33;13.23;;;6.37;;
55009;SDS011;40903;51.638;7.528;2024-01-10T08:57:59;11.73;;;6.03;;
55009;SDS011;40903;51.638;7.528;2024-01-10T09:00:24;10.70;;;5.37;;
55009;SDS011;40903;51.638;7.528;2024-01-10T09:02:50;12.40;;;5.57;;
55009;SDS011;40903;51.638;7.528;2024-01-10T09:05:15;12.10;;;5.60;;
55009;SDS011;40903;51.638;7.528;2024-01-10T09:07:41;17.70;;;6.73;;
55009;SDS011;40903;51.638;7.528;2024-01-10T09:10:07;15.07;;;7.03;;
55009;SDS011;40903;51.638;7.528;2024-01-10T09:12:33;12.63;;;6.60;;
55009;SDS011;40903;51.638;7.528;2024-01-10T09:14:59;13.32;;;5.68;;
55009;SDS011;40903;51.638;7.528;2024-01-10T09:17:26;12.13;;;5.88;;
55009;SDS011;40903;51.638;7.528;2024-01-10T09:19:53;11.35;;;6.40;;
55009;SDS011;40903;51.638;7.528;2024-01-10T09:22:18;12.43;;;5.43;;
55009;SDS011;40903;51.638;7.528;2024-01-10T09:24:44;14.50;;;6.67;;
55009;SDS011;40903;51.638;7.528;2024-01-10T09:27:13;10.88;;;5.72;;
55009;SDS011;40903;51.638;7.528;2024-01-10T09:29:38;14.90;;;6.47;;
55009;SDS011;40903;51.638;7.528;2024-01-10T09:32:04;15.23;;;6.83;;
55009;SDS011;40903;51.638;7.528;2024-01-10T09:34:29;15.50;;;7.60;;
55009;SDS011;40903;51.638;7.528;2024-01-10T09:36:55;16.03;;;6.80;;
55009;SDS011;40903;51.638;7.528;2024-01-10T09:39:21;15.10;;;6.90;;
55009;SDS011;40903;51.638;7.528;2024-01-10T09:41:47;15.73;;;6.73;;
55009;SDS011;40903;51.638;7.528;2024-01-10T09:44:14;12.93;;;6.88;;
55009;SDS011;40903;51.638;7.528;2024-01-10T09:46:43;15.77;;;6.32;;
55009;SDS011;40903;51.638;7.528;2024-01-10T09:49:11;19.23;;;7.15;;
55009;SDS011;40903;51.638;7.528;2024-01-10T09:51:37;13.27;;;6.77;;
55009;SDS011;40903;51.638;7.528;2024-01-10T09:54:03;15.77;;;7.30;;
55009;SDS011;40903;51.638;7.528;2024-01-10T09:56:33;16.80;;;6.60;;
55009;SDS011;40903;51.638;7.528;2024-01-10T09:59:00;12.55;;;6.72;;
55009;SDS011;40903;51.638;7.528;2024-01-10T10:01:29;14.70;;;6.43;;
55009;SDS011;40903;51.638;7.528;2024-01-10T10:03:55;17.17;;;7.32;;
55009;SDS011;40903;51.638;7.528;2024-01-10T10:06:23;19.10;;;6.82;;
55009;SDS011;40903;51.638;7.528;2024-01-10T10:08:49;16.20;;;7.57;;
55009;SDS011;40903;51.638;7.528;2024-01-10T10:11:14;13.80;;;7.00;;
55009;SDS011;40903;51.638;7.528;2024-01-10T10:13:40;13.10;;;6.38;;
55009;SDS011;40903;51.638;7.528;2024-01-10T10:16:07;14.95;;;6.55;;
55009;SDS011;40903;51.638;7.528;2024-01-10T10:18:35;13.98;;;6.85;;
55009;SDS011;40903;51.638;7.528;2024-01-10T10:21:07;13.32;;;6.45;;
55009;SDS011;40903;51.638;7.528;2024-01-10T10:23:35;14.00;;;6.45;;
55009;SDS011;40903;51.638;7.528;2024-01-10T10:26:20;17.10;;;7.87;;
55009;SDS011;40903;51.638;7.528;2024-01-10T10:28:46;12.40;;;5.80;;
55009;SDS011;40903;51.638;7.528;2024-01-10T10:31:12;13.73;;;6.50;;
55009;SDS011;40903;51.638;7.528;2024-01-10T10:33:39;12.97;;;6.90;;
55009;SDS011;40903;51.638;7.528;2024-01-10T10:36:05;15.52;;;6.97;;
55009;SDS011;40903;51.638;7.528;2024-01-10T10:38:31;20.33;;;8.30;;
55009;SDS011;40903;51.638;7.528;2024-01-10T10:40:58;17.67;;;7.93;;
55009;SDS011;40903;51.638;7.528;2024-01-10T10:43:25;13.53;;;6.90;;
55009;SDS011;40903;51.638;7.528;2024-01-10T10:45:51;14.53;;;6.67;;
55009;SDS011;40903;51.638;7.528;2024-01-10T10:48:20;13.73;;;7.13;;
55009;SDS011;40903;51.638;7.528;2024-01-10T10:51:32;13.57;;;6.37;;
55009;SDS011;40903;51.638;7.528;2024-01-10T10:53:38;16.33;;;6.47;;
55009;SDS011;40903;51.638;7.528;2024-01-10T10:56:08;11.77;;;6.43;;
55009;SDS011;40903;51.638;7.528;2024-01-10T10:58:35;17.73;;;7.20;;
55009;SDS011;40903;51.638;7.528;2024-01-10T11:01:06;14.07;;;7.40;;
55009;SDS011;40903;51.638;7.528;2024-01-10T11:03:36;15.73;;;7.30;;
55009;SDS011;40903;51.638;7.528;2024-01-10T11:06:04;12.80;;;7.37;;
55009;SDS011;40903;51.638;7.528;2024-01-10T11:08:32;13.17;;;6.80;;
55009;SDS011;40903;51.638;7.528;2024-01-10T11:11:06;15.70;;;7.23;;
55009;SDS011;40903;51.638;7.528;2024-01-10T11:25:34;14.87;;;7.23;;
55009;SDS011;40903;51.638;7.528;2024-01-10T11:28:02;15.33;;;7.40;;
55009;SDS011;40903;51.638;7.528;2024-01-10T11:30:34;15.10;;;7.17;;
55009;SDS011;40903;51.638;7.528;2024-01-10T11:33:01;14.33;;;7.30;;
55009;SDS011;40903;51.638;7.528;2024-01-10T11:35:27;15.17;;;7.50;;
55009;SDS011;40903;51.638;7.528;2024-01-10T11:37:59;17.13;;;8.07;;
55009;SDS011;40903;51.638;7.528;2024-01-10T11:43:21;13.57;;;7.03;;
55009;SDS011;40903;51.638;7.528;2024-01-10T11:46:19;16.17;;;6.80;;
55009;SDS011;40903;51.638;7.528;2024-01-10T11:48:38;13.93;;;6.50;;
55009;SDS011;40903;51.638;7.528;2024-01-10T11:51:04;12.93;;;6.23;;
55009;SDS011;40903;51.638;7.528;2024-01-10T11:56:08;17.73;;;7.07;;
55009;SDS011;40903;51.638;7.528;2024-01-10T11:59:00;17.60;;;6.93;;
55009;SDS011;40903;51.638;7.528;2024-01-10T12:01:29;13.43;;;8.03;;
55009;SDS011;40903;51.638;7.528;2024-01-10T12:03:54;18.43;;;7.07;;
55009;SDS011;40903;51.638;7.528;2024-01-10T12:06:21;13.60;;;6.83;;
55009;SDS011;40903;51.638;7.528;2024-01-10T12:08:48;18.67;;;7.37;;
55009;SDS011;40903;51.638;7.528;2024-01-10T12:11:14;15.93;;;7.20;;
55009;SDS011;40903;51.638;7.528;2024-01-10T12:13:41;15.50;;;7.53;;
55009;SDS011;40903;51.638;7.528;2024-01-10T12:16:07;14.13;;;6.37;;
55009;SDS011;40903;51.638;7.528;2024-01-10T12:18:32;13.73;;;6.87;;
55009;SDS011;40903;51.638;7.528;2024-01-10T12:20:59;13.83;;;6.30;;
55009;SDS011;40903;51.638;7.528;2024-01-10T12:23:27;15.97;;;7.67;;
55009;SDS011;40903;51.638;7.528;2024-01-10T12:25:57;16.93;;;6.47;;
55009;SDS011;40903;51.638;7.528;2024-01-10T12:28:23;15.00;;;6.57;;
55009;SDS011;40903;51.638;7.528;2024-01-10T12:30:49;11.53;;;6.57;;
55009;SDS011;40903;51.638;7.528;2024-01-10T12:33:15;14.27;;;6.10;;
55009;SDS011;40903;51.638;7.528;2024-01-10T12:35:43;16.50;;;6.73;;
55009;SDS011;40903;51.638;7.528;2024-01-10T12:38:12;13.07;;;7.10;;
55009;SDS011;40903;51.638;7.528;2024-01-10T12:40:37;12.87;;;5.77;;
55009;SDS011;40903;51.638;7.528;2024-01-10T12:43:04;13.60;;;6.87;;
55009;SDS011;40903;51.638;7.528;2024-01-10T12:45:31;17.20;;;7.43;;
55009;SDS011;40903;51.638;7.528;2024-01-10T12:47:57;11.63;;;6.17;;
55009;SDS011;40903;51.638;7.528;2024-01-10T12:50:23;15.27;;;7.33;;
55009;SDS011;40903;51.638;7.528;2024-01-10T12:52:50;10.80;;;6.13;;
55009;SDS011;40903;51.638;7.528;2024-01-10T12:55:16;13.47;;;6.97;;
55009;SDS011;40903;51.638;7.528;2024-01-10T12:57:43;16.60;;;7.47;;
55009;SDS011;40903;51.638;7.528;2024-01-10T13:00:09;16.20;;;8.23;;
55009;SDS011;40903;51.638;7.528;2024-01-10T13:02:36;15.33;;;6.70;;
55009;SDS011;40903;51.638;7.528;2024-01-10T13:05:05;14.57;;;6.77;;
55009;SDS011;40903;51.638;7.528;2024-01-10T13:07:37;16.73;;;7.60;;
55009;SDS011;40903;51.638;7.528;2024-01-10T13:10:04;18.17;;;6.93;;
55009;SDS011;40903;51.638;7.528;2024-01-10T13:12:29;14.37;;;6.97;;
55009;SDS011;40903;51.638;7.528;2024-01-10T13:14:55;13.67;;;6.90;;
55009;SDS011;40903;51.638;7.528;2024-01-10T13:17:21;14.30;;;6.80;;
55009;SDS011;40903;51.638;7.528;2024-01-10T13:19:47;17.93;;;6.93;;
55009;SDS011;40903;51.638;7.528;2024-01-10T13:22:14;14.20;;;7.67;;
55009;SDS011;40903;51.638;7.528;2024-01-10T13:24:44;14.33;;;6.63;;
55009;SDS011;40903;51.638;7.528;2024-01-10T13:27:10;14.03;;;6.73;;
55009;SDS011;40903;51.638;7.528;2024-01-10T13:29:36;15.43;;;6.70;;
55009;SDS011;40903;51.638;7.528;2024-01-10T13:32:05;11.70;;;6.90;;
55009;SDS011;40903;51.638;7.528;2024-01-10T13:34:32;11.77;;;6.80;;
55009;SDS011;40903;51.638;7.528;2024-01-10T13:36:58;14.30;;;7.17;;
55009;SDS011;40903;51.638;7.528;2024-01-10T13:39:23;11.50;;;6.00;;
55009;SDS011;40903;51.638;7.528;2024-01-10T13:41:54;10.97;;;5.83;;
55009;SDS011;40903;51.638;7.528;2024-01-10T13:44:19;15.27;;;7.07;;
55009;SDS011;40903;51.638;7.528;2024-01-10T13:46:45;11.63;;;5.63;;
55009;SDS011;40903;51.638;7.528;2024-01-10T13:49:12;13.03;;;6.63;;
55009;SDS011;40903;51.638;7.528;2024-01-10T13:51:39;12.20;;;6.07;;
55009;SDS011;40903;51.638;7.528;2024-01-10T13:54:05;15.63;;;5.97;;
55009;SDS011;40903;51.638;7.528;2024-01-10T13:56:31;13.30;;;6.57;;
55009;SDS011;40903;51.638;7.528;2024-01-10T13:58:57;11.57;;;5.90;;
55009;SDS011;40903;51.638;7.528;2024-01-10T14:01:23;18.63;;;10.00;;
55009;SDS011;40903;51.638;7.528;2024-01-10T14:03:48;29.27;;;15.03;;
55009;SDS011;40903;51.638;7.528;2024-01-10T14:06:14;15.33;;;7.20;;
55009;SDS011;40903;51.638;7.528;2024-01-10T14:08:39;24.03;;;9.97;;
55009;SDS011;40903;51.638;7.528;2024-01-10T14:11:06;16.13;;;8.00;;
55009;SDS011;40903;51.638;7.528;2024-01-10T14:13:32;11.17;;;6.53;;
55009;SDS011;40903;51.638;7.528;2024-01-10T14:15:57;17.00;;;8.00;;
55009;SDS011;40903;51.638;7.528;2024-01-10T14:18:23;21.00;;;9.23;;
55009;SDS011;40903;51.638;7.528;2024-01-10T14:20:48;16.67;;;7.50;;
55009;SDS011;40903;51.638;7.528;2024-01-10T14:23:14;16.07;;;7.77;;
55009;SDS011;40903;51.638;7.528;2024-01-10T14:25:42;15.63;;;8.10;;
55009;SDS011;40903;51.638;7.528;2024-01-10T14:28:08;13.47;;;7.10;;
55009;SDS011;40903;51.638;7.528;2024-01-10T14:30:34;21.80;;;9.73;;
55009;SDS011;40903;51.638;7.528;2024-01-10T14:32:59;17.10;;;9.07;;
55009;SDS011;40903;51.638;7.528;2024-01-10T14:35:25;16.43;;;7.57;;
55009;SDS011;40903;51.638;7.528;2024-01-10T14:37:50;16.13;;;7.83;;
55009;SDS011;40903;51.638;7.528;2024-01-10T14:40:16;19.67;;;8.47;;
55009;SDS011;40903;51.638;7.528;2024-01-10T14:42:41;14.47;;;7.97;;
55009;SDS011;40903;51.638;7.528;2024-01-10T14:45:07;16.43;;;7.90;;
55009;SDS011;40903;51.638;7.528;2024-01-10T14:47:33;17.87;;;9.13;;
55009;SDS011;40903;51.638;7.528;2024-01-10T14:50:00;14.43;;;7.90;;
55009;SDS011;40903;51.638;7.528;2024-01-10T14:52:25;19.87;;;8.97;;
55009;SDS011;40903;51.638;7.528;2024-01-10T14:54:52;20.90;;;9.13;;